Time;durP1;ratioP1;P1;durP2;ratioP2;P2;SDS_P1;SDS_P2;PMS_P1;PMS_P2;Temp;Humidity;BMP_temperature;BMP_pressure;BME280_temperature;BME280_humidity;BME280_pressure;Samples;Min_cycle;Max_cycle;Signal;HPM_P1;HPM_P2
2023/04/27 00:01:44;;;;;;;;;;;;;;;;;;5093680;28;2092;-39
2023/04/27 00:04:13;;;;;;;;;;;;;;;;;;5092976;28;2009;-39
2023/04/27 00:06:40;;;;;;;;;;;;;;;;;;5093406;28;2292;-40
2023/04/27 00:09:10;;;;;;;;;;;;;;;;;;5098371;28;1863;-39
2023/04/27 00:11:38;;;;;;;;;;;;;;;;;;5113675;28;2014;-40
2023/04/27 00:14:05;;;;;;;;;;;;;;;;;;5113550;28;2087;-43
2023/04/27 00:16:32;;;;;;;;;;;;;;;;;;5113296;28;1972;-40
2023/04/27 00:19:00;;;;;;;;;;;;;;;;;;5113346;28;1885;-40
2023/04/27 00:21:27;;;;;;;;;;;;;;;;;;5113630;28;1930;-41
2023/04/27 00:23:54;;;;;;;;;;;;;;;;;;5113422;28;1823;-43
2023/04/27 00:26:21;;;;;;;;;;;;;;;;;;5095496;28;1929;-39
2023/04/27 00:28:51;;;;;;;;;;;;;;;;;;5113498;28;2059;-41
2023/04/27 00:31:18;;;;;;;;;;;;;;;;;;5095207;28;2039;-40
2023/04/27 00:33:47;;;;;;;;;;;;;;;;;;5094917;28;1689;-39
2023/04/27 00:36:15;;;;;;;;;;;;;;;;;;5094758;28;2069;-39
2023/04/27 00:38:43;;;;;;;;;;;;;;;;;;5113267;28;2157;-39
2023/04/27 00:41:10;;;;;;;;;;;;;;;;;;5113016;28;1939;-40
2023/04/27 00:43:40;;;;;;;;;;;;;;;;;;5113096;28;2145;-40
2023/04/27 00:46:08;;;;;;;;;;;;;;;;;;5112719;28;1864;-40
2023/04/27 00:48:36;;;;;;;;;;;;;;;;;;5112995;28;1932;-40
2023/04/27 00:51:04;;;;;;;;;;;;;;;;;;5112870;28;1902;-39
2023/04/27 00:53:33;;;;;;;;;;;;;;;;;;5112607;28;1979;-40
2023/04/27 00:56:00;;;;;;;;;;;;;;;;;;5112850;28;1915;-40
2023/04/27 00:58:27;;;;;;;;;;;;;;;;;;5112735;28;1770;-39
2023/04/27 01:00:55;;;;;;;;;;;;;;;;;;5094530;28;2088;-40
2023/04/27 01:03:22;;;;;;;;;;;;;;;;;;5112828;28;2029;-39
2023/04/27 01:05:50;;;;;;;;;;;;;;;;;;5112624;28;1987;-39
2023/04/27 01:08:17;;;;;;;;;;;;;;;;;;5112644;28;1937;-41
2023/04/27 01:10:44;;;;;;;;;;;;;;;;;;5112413;28;1834;-39
2023/04/27 01:13:11;;;;;;;;;;;;;;;;;;5112411;28;1885;-39
2023/04/27 01:15:39;;;;;;;;;;;;;;;;;;5093785;28;1976;-40
2023/04/27 01:18:08;;;;;;;;;;;;;;;;;;5111816;28;2040;-39
2023/04/27 01:20:37;;;;;;;;;;;;;;;;;;5112345;28;2002;-39
2023/04/27 01:23:05;;;;;;;;;;;;;;;;;;5112260;28;1944;-44
2023/04/27 01:25:35;;;;;;;;;;;;;;;;;;5112178;28;2203;-39
2023/04/27 01:28:02;;;;;;;;;;;;;;;;;;5077061;28;1921;-39
2023/04/27 01:30:29;;;;;;;;;;;;;;;;;;5112190;28;1984;-38
2023/04/27 01:32:57;;;;;;;;;;;;;;;;;;5112402;28;1957;-39
2023/04/27 01:35:25;;;;;;;;;;;;;;;;;;5112143;28;2018;-40
2023/04/27 01:37:57;;;;;;;;;;;;;;;;;;5112335;28;1948;-39
2023/04/27 01:40:25;;;;;;;;;;;;;;;;;;5112086;28;1987;-39
2023/04/27 01:42:52;;;;;;;;;;;;;;;;;;5093663;28;1894;-39
2023/04/27 01:45:19;;;;;;;;;;;;;;;;;;5093521;28;2051;-39
2023/04/27 01:47:49;;;;;;;;;;;;;;;;;;5111835;28;1884;-45
2023/04/27 01:50:18;;;;;;;;;;;;;;;;;;5111891;28;1866;-39
2023/04/27 01:52:46;;;;;;;;;;;;;;;;;;5093352;28;1942;-39
2023/04/27 01:55:13;;;;;;;;;;;;;;;;;;5091945;28;1978;-39
2023/04/27 01:57:41;;;;;;;;;;;;;;;;;;5073272;28;1960;-39
2023/04/27 02:00:09;;;;;;;;;;;;;;;;;;5073202;28;2087;-39
2023/04/27 02:02:52;;;;;;;;;;;;;;;;;;5073234;28;2294;-39
2023/04/27 02:05:21;;;;;;;;;;;;;;;;;;5073012;28;1809;-39
2023/04/27 02:07:49;;;;;;;;;;;;;;;;;;5073358;28;1804;-40
2023/04/27 02:10:17;;;;;;;;;;;;;;;;;;5091250;28;1994;-39
2023/04/27 02:12:44;;;;;;;;;;;;;;;;;;5091315;28;1943;-40
2023/04/27 02:15:11;;;;;;;;;;;;;;;;;;5091190;28;1971;-39
2023/04/27 02:17:38;;;;;;;;;;;;;;;;;;5091043;28;2162;-39
2023/04/27 02:20:06;;;;;;;;;;;;;;;;;;5091178;28;1344;-39
2023/04/27 02:22:34;;;;;;;;;;;;;;;;;;5110192;28;2059;-42
2023/04/27 02:25:01;;;;;;;;;;;;;;;;;;5093720;28;1880;-39
2023/04/27 02:27:28;;;;;;;;;;;;;;;;;;5112231;28;1857;-39
2023/04/27 02:29:57;;;;;;;;;;;;;;;;;;5115777;28;1987;-39
2023/04/27 02:32:24;;;;;;;;;;;;;;;;;;5097188;28;2020;-44
2023/04/27 02:34:51;;;;;;;;;;;;;;;;;;5115511;28;1944;-40
2023/04/27 02:37:18;;;;;;;;;;;;;;;;;;5115655;28;2134;-39
2023/04/27 02:39:46;;;;;;;;;;;;;;;;;;5097172;28;1974;-39
2023/04/27 02:42:13;;;;;;;;;;;;;;;;;;5115659;28;2035;-44
2023/04/27 02:44:41;;;;;;;;;;;;;;;;;;5115458;28;2231;-40
2023/04/27 02:47:08;;;;;;;;;;;;;;;;;;5115110;28;2114;-40
2023/04/27 02:49:36;;;;;;;;;;;;;;;;;;5115377;28;1959;-39
2023/04/27 02:52:03;;;;;;;;;;;;;;;;;;5115260;28;1791;-39
2023/04/27 02:54:31;;;;;;;;;;;;;;;;;;5083209;28;2124;-40
2023/04/27 02:56:58;;;;;;;;;;;;;;;;;;5094802;28;1999;-46
2023/04/27 02:59:26;;;;;;;;;;;;;;;;;;5093299;28;1988;-40
2023/04/27 03:01:53;;;;;;;;;;;;;;;;;;5094651;28;2116;-39
2023/04/27 03:04:20;;;;;;;;;;;;;;;;;;5094576;28;2078;-39
2023/04/27 03:06:47;;;;;;;;;;;;;;;;;;5094605;28;1963;-39
2023/04/27 03:09:15;;;;;;;;;;;;;;;;;;5094656;28;2053;-39
2023/04/27 03:11:42;;;;;;;;;;;;;;;;;;5094490;28;1915;-39
2023/04/27 03:14:11;;;;;;;;;;;;;;;;;;5094439;28;1938;-39
2023/04/27 03:16:39;;;;;;;;;;;;;;;;;;5094429;28;1980;-39
2023/04/27 03:19:06;;;;;;;;;;;;;;;;;;5094360;28;2066;-41
2023/04/27 03:21:33;;;;;;;;;;;;;;;;;;5093206;28;1945;-44
2023/04/27 03:24:01;;;;;;;;;;;;;;;;;;5094283;28;2193;-40
2023/04/27 03:26:28;;;;;;;;;;;;;;;;;;5093911;28;1983;-39
2023/04/27 03:28:56;;;;;;;;;;;;;;;;;;5094157;28;1810;-39
2023/04/27 03:31:27;;;;;;;;;;;;;;;;;;5093950;28;2077;-38
2023/04/27 03:33:54;;;;;;;;;;;;;;;;;;5075881;28;2185;-39
2023/04/27 03:36:21;;;;;;;;;;;;;;;;;;5094026;28;1971;-40
2023/04/27 03:38:49;;;;;;;;;;;;;;;;;;5100646;28;2201;-39
2023/04/27 03:41:16;;;;;;;;;;;;;;;;;;5094810;28;2084;-40
2023/04/27 03:43:44;;;;;;;;;;;;;;;;;;5114255;28;2002;-43
2023/04/27 03:46:11;;;;;;;;;;;;;;;;;;5092350;28;2225;-40
2023/04/27 03:48:39;;;;;;;;;;;;;;;;;;5092425;28;2189;-39
2023/04/27 03:51:06;;;;;;;;;;;;;;;;;;5084085;28;2047;-40
2023/04/27 03:53:35;;;;;;;;;;;;;;;;;;5074677;28;1949;-39
2023/04/27 03:56:02;;;;;;;;;;;;;;;;;;5072026;28;2405;-50
2023/04/27 03:58:30;;;;;;;;;;;;;;;;;;5072217;28;1981;-39
2023/04/27 04:01:13;;;;;;;;;;;;;;;;;;5072039;28;1838;-40
2023/04/27 04:03:41;;;;;;;;;;;;;;;;;;5071994;28;2023;-39
2023/04/27 04:06:08;;;;;;;;;;;;;;;;;;5073008;28;1987;-39
2023/04/27 04:08:36;;;;;;;;;;;;;;;;;;5073600;28;2108;-39
2023/04/27 04:11:06;;;;;;;;;;;;;;;;;;5073318;28;1989;-48
2023/04/27 04:13:34;;;;;;;;;;;;;;;;;;5072071;28;1918;-39
2023/04/27 04:16:02;;;;;;;;;;;;;;;;;;5071664;28;2017;-53
2023/04/27 04:18:30;;;;;;;;;;;;;;;;;;5071563;28;2095;-39
2023/04/27 04:20:57;;;;;;;;;;;;;;;;;;5071603;28;2004;-59
2023/04/27 04:23:26;;;;;;;;;;;;;;;;;;5071629;28;2338;-40
2023/04/27 04:25:55;;;;;;;;;;;;;;;;;;5071558;28;1942;-40
2023/04/27 04:28:24;;;;;;;;;;;;;;;;;;5082998;28;2108;-40
2023/04/27 04:30:52;;;;;;;;;;;;;;;;;;5091715;28;2026;-55
2023/04/27 04:33:19;;;;;;;;;;;;;;;;;;5108410;28;2018;-39
2023/04/27 04:35:47;;;;;;;;;;;;;;;;;;5092914;28;1985;-39
2023/04/27 04:38:14;;;;;;;;;;;;;;;;;;5092896;28;2116;-39
2023/04/27 04:40:42;;;;;;;;;;;;;;;;;;5092843;28;1996;-40
2023/04/27 04:43:14;;;;;;;;;;;;;;;;;;5108572;28;2043;-40
2023/04/27 04:45:41;;;;;;;;;;;;;;;;;;5093385;28;1963;-40
2023/04/27 04:48:13;;;;;;;;;;;;;;;;;;5094723;28;2040;-39
2023/04/27 04:50:41;;;;;;;;;;;;;;;;;;5094429;28;1903;-40
2023/04/27 04:53:08;;;;;;;;;;;;;;;;;;5112978;28;2215;-40
2023/04/27 04:55:35;;;;;;;;;;;;;;;;;;5094754;28;1936;-40
2023/04/27 04:58:03;;;;;;;;;;;;;;;;;;5094606;28;2146;-39
2023/04/27 05:00:30;;;;;;;;;;;;;;;;;;5094142;28;2044;-40
2023/04/27 05:03:00;;;;;;;;;;;;;;;;;;5112681;28;1938;-60
2023/04/27 05:05:27;;;;;;;;;;;;;;;;;;5112706;28;2032;-40
2023/04/27 05:07:54;;;;;;;;;;;;;;;;;;5112698;28;1885;-40
2023/04/27 05:10:21;;;;;;;;;;;;;;;;;;5112630;28;2053;-43
2023/04/27 05:12:48;;;;;;;;;;;;;;;;;;5112426;28;2241;-40
2023/04/27 05:15:16;;;;;;;;;;;;;;;;;;5112562;28;1997;-39
2023/04/27 05:17:43;;;;;;;;;;;;;;;;;;5112298;28;2152;-39
2023/04/27 05:20:10;;;;;;;;;;;;;;;;;;5112765;28;1883;-40
2023/04/27 05:22:37;;;;;;;;;;;;;;;;;;5112604;28;1957;-39
2023/04/27 05:25:05;;;;;;;;;;;;;;;;;;5112525;28;2051;-40
2023/04/27 05:27:32;;;;;;;;;;;;;;;;;;5112181;28;1897;-40
2023/04/27 05:29:59;;;;;;;;;;;;;;;;;;5112103;28;1890;-42
2023/04/27 05:32:29;;;;;;;;;;;;;;;;;;5112256;28;1965;-40
2023/04/27 05:34:56;;;;;;;;;;;;;;;;;;5112227;28;1838;-40
2023/04/27 05:37:23;;;;;;;;;;;;;;;;;;5112063;28;2125;-41
2023/04/27 05:39:51;;;;;;;;;;;;;;;;;;5112024;28;2056;-40
2023/04/27 05:42:18;;;;;;;;;;;;;;;;;;5111919;28;2043;-39
2023/04/27 05:44:45;;;;;;;;;;;;;;;;;;5112082;28;2327;-40
2023/04/27 05:47:12;;;;;;;;;;;;;;;;;;5111952;28;1439;-56
2023/04/27 05:49:40;;;;;;;;;;;;;;;;;;5112077;28;1929;-40
2023/04/27 05:52:07;;;;;;;;;;;;;;;;;;5111838;28;2083;-41
2023/04/27 05:54:34;;;;;;;;;;;;;;;;;;5097354;28;1991;-57
2023/04/27 05:57:01;;;;;;;;;;;;;;;;;;5091406;28;2040;-41
2023/04/27 05:59:29;;;;;;;;;;;;;;;;;;5091448;28;1977;-57
2023/04/27 06:01:56;;;;;;;;;;;;;;;;;;5091174;28;2176;-41
2023/04/27 06:04:23;;;;;;;;;;;;;;;;;;5091162;28;1916;-56
2023/04/27 06:06:51;;;;;;;;;;;;;;;;;;5091379;28;2045;-41
2023/04/27 06:09:18;;;;;;;;;;;;;;;;;;5091265;28;1816;-41
2023/04/27 06:11:46;;;;;;;;;;;;;;;;;;5091424;28;1409;-39
2023/04/27 06:14:13;;;;;;;;;;;;;;;;;;5091477;28;2164;-43
2023/04/27 06:16:40;;;;;;;;;;;;;;;;;;5091390;28;2047;-40
2023/04/27 06:19:07;;;;;;;;;;;;;;;;;;5091433;28;1851;-47
2023/04/27 06:21:35;;;;;;;;;;;;;;;;;;5090953;28;1996;-40
2023/04/27 06:24:02;;;;;;;;;;;;;;;;;;5091224;28;1894;-48
2023/04/27 06:26:30;;;;;;;;;;;;;;;;;;5091247;28;1807;-47
2023/04/27 06:28:57;;;;;;;;;;;;;;;;;;5091189;28;1997;-40
2023/04/27 06:31:25;;;;;;;;;;;;;;;;;;5095201;28;1872;-55
2023/04/27 06:33:52;;;;;;;;;;;;;;;;;;5111610;28;2018;-40
2023/04/27 06:36:20;;;;;;;;;;;;;;;;;;5111389;28;2147;-40
2023/04/27 06:38:47;;;;;;;;;;;;;;;;;;5111566;28;1914;-38
2023/04/27 06:41:14;;;;;;;;;;;;;;;;;;5111964;28;2124;-40
2023/04/27 06:43:41;;;;;;;;;;;;;;;;;;5111343;28;1990;-41
2023/04/27 06:46:08;;;;;;;;;;;;;;;;;;5111183;28;1866;-42
2023/04/27 06:48:36;;;;;;;;;;;;;;;;;;5111162;28;1970;-41
2023/04/27 06:51:03;;;;;;;;;;;;;;;;;;5111269;28;1985;-52
2023/04/27 06:53:30;;;;;;;;;;;;;;;;;;5110985;28;2134;-40
2023/04/27 06:55:57;;;;;;;;;;;;;;;;;;5111242;28;1338;-53
2023/04/27 06:58:25;;;;;;;;;;;;;;;;;;5111087;28;2048;-40
2023/04/27 07:00:53;;;;;;;;;;;;;;;;;;5111390;28;1982;-41
2023/04/27 07:03:21;;;;;;;;;;;;;;;;;;5111037;28;1873;-40
2023/04/27 07:05:50;;;;;;;;;;;;;;;;;;5111363;28;1854;-53
2023/04/27 07:08:17;;;;;;;;;;;;;;;;;;5111501;28;2127;-40
2023/04/27 07:10:45;;;;;;;;;;;;;;;;;;5111097;28;2002;-40
2023/04/27 07:13:12;;;;;;;;;;;;;;;;;;5111170;28;1916;-40
2023/04/27 07:15:40;;;;;;;;;;;;;;;;;;5114844;28;1842;-40
2023/04/27 07:18:07;;;;;;;;;;;;;;;;;;5114648;28;2019;-40
2023/04/27 07:20:36;;;;;;;;;;;;;;;;;;5114913;28;2001;-41
2023/04/27 07:23:03;;;;;;;;;;;;;;;;;;5114764;28;1905;-40
2023/04/27 07:25:30;;;;;;;;;;;;;;;;;;5114651;28;1836;-40
2023/04/27 07:27:58;;;;;;;;;;;;;;;;;;5114566;28;1920;-40
2023/04/27 07:30:25;;;;;;;;;;;;;;;;;;5114315;28;2168;-40
2023/04/27 07:32:53;;;;;;;;;;;;;;;;;;5114562;28;1770;-41
2023/04/27 07:35:21;;;;;;;;;;;;;;;;;;5114635;28;2147;-42
2023/04/27 07:37:48;;;;;;;;;;;;;;;;;;5114453;28;2107;-44
2023/04/27 07:40:15;;;;;;;;;;;;;;;;;;5114276;28;1869;-41
2023/04/27 07:42:43;;;;;;;;;;;;;;;;;;5114357;28;2197;-40
2023/04/27 07:45:10;;;;;;;;;;;;;;;;;;5114519;28;2113;-40
2023/04/27 07:47:38;;;;;;;;;;;;;;;;;;5114179;28;2042;-39
2023/04/27 07:50:06;;;;;;;;;;;;;;;;;;5114259;28;2019;-39
2023/04/27 07:52:33;;;;;;;;;;;;;;;;;;5113531;28;1975;-40
2023/04/27 07:55:00;;;;;;;;;;;;;;;;;;5096135;28;1980;-40
2023/04/27 07:57:28;;;;;;;;;;;;;;;;;;5106105;28;2040;-42
2023/04/27 07:59:56;;;;;;;;;;;;;;;;;;5113979;28;1988;-40
2023/04/27 08:02:23;;;;;;;;;;;;;;;;;;5113858;28;2017;-40
2023/04/27 08:04:50;;;;;;;;;;;;;;;;;;5113963;28;1779;-47
2023/04/27 08:07:18;;;;;;;;;;;;;;;;;;5113776;28;2047;-40
2023/04/27 08:09:45;;;;;;;;;;;;;;;;;;5114038;28;1883;-41
2023/04/27 08:12:13;;;;;;;;;;;;;;;;;;5113702;28;1978;-61
2023/04/27 08:14:40;;;;;;;;;;;;;;;;;;5113860;28;1942;-51
2023/04/27 08:17:07;;;;;;;;;;;;;;;;;;5113559;28;1921;-40
2023/04/27 08:19:34;;;;;;;;;;;;;;;;;;5113510;28;1946;-43
2023/04/27 08:22:02;;;;;;;;;;;;;;;;;;5113683;28;2143;-41
2023/04/27 08:24:29;;;;;;;;;;;;;;;;;;5113697;28;1719;-53
2023/04/27 08:26:56;;;;;;;;;;;;;;;;;;5112999;28;1924;-40
2023/04/27 08:29:23;;;;;;;;;;;;;;;;;;5113587;28;1986;-41
2023/04/27 08:31:55;;;;;;;;;;;;;;;;;;5113690;28;2012;-47
2023/04/27 08:34:23;;;;;;;;;;;;;;;;;;5113424;28;2136;-40
2023/04/27 08:36:50;;;;;;;;;;;;;;;;;;5113597;28;1891;-40
2023/04/27 08:39:17;;;;;;;;;;;;;;;;;;5113023;28;2041;-61
2023/04/27 08:41:45;;;;;;;;;;;;;;;;;;5113347;28;2020;-41
2023/04/27 08:44:12;;;;;;;;;;;;;;;;;;5113240;28;2194;-41
2023/04/27 08:46:39;;;;;;;;;;;;;;;;;;5113226;28;1960;-40
2023/04/27 08:49:07;;;;;;;;;;;;;;;;;;5113280;28;1810;-40
2023/04/27 08:51:34;;;;;;;;;;;;;;;;;;5112755;28;2098;-40
2023/04/27 08:54:04;;;;;;;;;;;;;;;;;;5103008;28;2189;-47
2023/04/27 08:56:31;;;;;;;;;;;;;;;;;;5092386;28;2040;-58
2023/04/27 08:59:00;;;;;;;;;;;;;;;;;;5092441;28;1977;-40
2023/04/27 09:01:27;;;;;;;;;;;;;;;;;;5092766;28;1968;-40
2023/04/27 09:03:58;;;;;;;;;;;;;;;;;;5092285;28;1998;-40
2023/04/27 09:06:32;;;;;;;;;;;;;;;;;;5092446;28;1949;-40
2023/04/27 09:09:00;;;;;;;;;;;;;;;;;;5092268;28;1945;-40
2023/04/27 09:11:28;;;;;;;;;;;;;;;;;;5092227;28;2298;-40
2023/04/27 09:13:56;;;;;;;;;;;;;;;;;;5092580;28;1890;-41
2023/04/27 09:16:24;;;;;;;;;;;;;;;;;;5092296;28;1867;-41
2023/04/27 09:18:52;;;;;;;;;;;;;;;;;;5091788;28;1973;-52
2023/04/27 09:21:26;;;;;;;;;;;;;;;;;;5092265;28;2141;-45
2023/04/27 09:23:54;;;;;;;;;;;;;;;;;;5092227;28;1834;-41
2023/04/27 09:26:22;;;;;;;;;;;;;;;;;;5091990;28;2230;-41
2023/04/27 09:28:50;;;;;;;;;;;;;;;;;;5092169;28;1970;-43
2023/04/27 09:31:17;;;;;;;;;;;;;;;;;;5090902;28;1866;-41
2023/04/27 09:33:46;;;;;;;;;;;;;;;;;;5091895;28;2016;-40
2023/04/27 09:36:13;;;;;;;;;;;;;;;;;;5096188;28;1421;-41
2023/04/27 09:38:40;;;;;;;;;;;;;;;;;;5111159;28;1942;-40
2023/04/27 09:41:08;;;;;;;;;;;;;;;;;;5093901;28;2601;-41
2023/04/27 09:43:35;;;;;;;;;;;;;;;;;;5111969;28;2039;-50
2023/04/27 09:46:03;;;;;;;;;;;;;;;;;;5112104;28;2110;-41
2023/04/27 09:48:30;;;;;;;;;;;;;;;;;;5112003;28;1904;-40
2023/04/27 09:50:59;;;;;;;;;;;;;;;;;;5112024;28;2030;-41
2023/04/27 09:53:33;;;;;;;;;;;;;;;;;;5107324;28;2147;-40
2023/04/27 09:56:06;;;;;;;;;;;;;;;;;;5091385;28;2003;-40
2023/04/27 09:58:33;;;;;;;;;;;;;;;;;;5096725;28;2088;-57
2023/04/27 10:01:03;;;;;;;;;;;;;;;;;;5111857;28;1994;-40
2023/04/27 10:03:46;;;;;;;;;;;;;;;;;;5112012;28;1898;-40
2023/04/27 10:06:32;;;;;;;;;;;;;;;;;;5111777;28;1951;-41
2023/04/27 10:09:04;;;;;;;;;;;;;;;;;;5111788;28;2071;-40
2023/04/27 10:11:46;;;;;;;;;;;;;;;;;;5111719;28;1890;-53
2023/04/27 10:14:31;;;;;;;;;;;;;;;;;;5111631;28;2234;-43
2023/04/27 10:16:59;;;;;;;;;;;;;;;;;;5111766;28;2074;-40
2023/04/27 10:19:27;;;;;;;;;;;;;;;;;;5111389;28;1990;-53
2023/04/27 10:21:56;;;;;;;;;;;;;;;;;;5109699;28;1918;-40
2023/04/27 10:24:36;;;;;;;;;;;;;;;;;;5109773;28;2094;-41
2023/04/27 10:27:04;;;;;;;;;;;;;;;;;;5109704;28;2025;-40
2023/04/27 10:29:35;;;;;;;;;;;;;;;;;;5109698;28;1943;-40
2023/04/27 10:32:23;;;;;;;;;;;;;;;;;;5110037;28;2022;-41
2023/04/27 10:34:51;;;;;;;;;;;;;;;;;;5110032;28;1935;-41
2023/04/27 10:37:24;;;;;;;;;;;;;;;;;;5111680;28;1808;-41
2023/04/27 10:39:52;;;;;;;;;;;;;;;;;;5111312;28;1965;-40
2023/04/27 10:42:27;;;;;;;;;;;;;;;;;;5111366;28;1937;-40
2023/04/27 10:44:57;;;;;;;;;;;;;;;;;;5111504;28;2000;-45
2023/04/27 10:47:35;;;;;;;;;;;;;;;;;;5111272;28;1992;-40
2023/04/27 10:50:07;;;;;;;;;;;;;;;;;;5114633;28;1954;-53
2023/04/27 10:52:34;;;;;;;;;;;;;;;;;;5115408;28;1925;-41
2023/04/27 10:55:12;;;;;;;;;;;;;;;;;;5096630;28;2008;-40
2023/04/27 10:57:49;;;;;;;;;;;;;;;;;;5100141;28;1917;-41
2023/04/27 11:00:26;;;;;;;;;;;;;;;;;;5115067;28;2113;-52
2023/04/27 11:02:56;;;;;;;;;;;;;;;;;;5114809;28;2130;-41
2023/04/27 11:05:28;;;;;;;;;;;;;;;;;;5115179;28;1864;-41
2023/04/27 11:08:08;;;;;;;;;;;;;;;;;;5114860;28;2064;-41
2023/04/27 11:10:40;;;;;;;;;;;;;;;;;;5115117;28;1974;-44
2023/04/27 11:13:10;;;;;;;;;;;;;;;;;;5114917;28;2038;-43
2023/04/27 11:15:41;;;;;;;;;;;;;;;;;;5114951;28;2070;-41
2023/04/27 11:18:09;;;;;;;;;;;;;;;;;;5114692;28;1975;-43
2023/04/27 11:20:36;;;;;;;;;;;;;;;;;;5114818;28;2038;-50
2023/04/27 11:23:04;;;;;;;;;;;;;;;;;;5115091;28;2151;-58
2023/04/27 11:25:32;;;;;;;;;;;;;;;;;;5114821;28;2039;-59
2023/04/27 11:27:59;;;;;;;;;;;;;;;;;;5114483;28;1835;-49
2023/04/27 11:30:26;;;;;;;;;;;;;;;;;;5114767;28;2057;-44
2023/04/27 11:32:53;;;;;;;;;;;;;;;;;;5114585;28;2133;-41
2023/04/27 11:35:31;;;;;;;;;;;;;;;;;;5114544;28;1927;-41
2023/04/27 11:37:58;;;;;;;;;;;;;;;;;;5114399;28;1993;-41
2023/04/27 11:40:27;;;;;;;;;;;;;;;;;;5114196;28;2090;-41
2023/04/27 11:42:58;;;;;;;;;;;;;;;;;;5114342;28;2098;-42
2023/04/27 11:45:29;;;;;;;;;;;;;;;;;;5114505;28;1994;-40
2023/04/27 11:47:59;;;;;;;;;;;;;;;;;;5114041;28;1946;-41
2023/04/27 11:50:27;;;;;;;;;;;;;;;;;;5114220;28;1906;-40
2023/04/27 11:52:54;;;;;;;;;;;;;;;;;;5113843;28;2032;-39
2023/04/27 11:55:23;;;;;;;;;;;;;;;;;;5075930;28;2137;-41
2023/04/27 11:57:54;;;;;;;;;;;;;;;;;;5109422;28;2183;-40
2023/04/27 12:00:23;;;;;;;;;;;;;;;;;;5112969;28;1944;-40
2023/04/27 12:02:50;;;;;;;;;;;;;;;;;;5114044;28;1990;-40
2023/04/27 12:05:18;;;;;;;;;;;;;;;;;;5113831;28;1838;-41
2023/04/27 12:07:48;;;;;;;;;;;;;;;;;;5113922;28;2238;-59
2023/04/27 12:10:15;;;;;;;;;;;;;;;;;;5113092;28;1926;-41
2023/04/27 12:12:43;;;;;;;;;;;;;;;;;;5113726;28;1936;-41
2023/04/27 12:15:10;;;;;;;;;;;;;;;;;;5113692;28;2047;-44
2023/04/27 12:17:38;;;;;;;;;;;;;;;;;;5113836;28;1919;-51
2023/04/27 12:20:05;;;;;;;;;;;;;;;;;;5113561;28;2051;-40
2023/04/27 12:22:32;;;;;;;;;;;;;;;;;;5113663;28;2083;-41
2023/04/27 12:25:00;;;;;;;;;;;;;;;;;;5113481;28;1983;-42
2023/04/27 12:27:31;;;;;;;;;;;;;;;;;;5113568;28;2035;-46
2023/04/27 12:29:59;;;;;;;;;;;;;;;;;;5113324;28;1938;-40
2023/04/27 12:32:26;;;;;;;;;;;;;;;;;;5113282;28;2136;-39
2023/04/27 12:34:54;;;;;;;;;;;;;;;;;;5113392;28;1979;-50
2023/04/27 12:37:21;;;;;;;;;;;;;;;;;;5113239;28;1977;-40
2023/04/27 12:39:49;;;;;;;;;;;;;;;;;;5113256;28;2122;-40
2023/04/27 12:42:18;;;;;;;;;;;;;;;;;;5113088;28;2021;-41
2023/04/27 12:44:46;;;;;;;;;;;;;;;;;;5112966;28;2061;-46
2023/04/27 12:47:13;;;;;;;;;;;;;;;;;;5094350;28;1942;-41
2023/04/27 12:49:53;;;;;;;;;;;;;;;;;;5113045;28;2157;-40
2023/04/27 12:52:20;;;;;;;;;;;;;;;;;;5112991;28;1937;-47
2023/04/27 12:54:48;;;;;;;;;;;;;;;;;;5112815;28;1981;-40
2023/04/27 12:57:15;;;;;;;;;;;;;;;;;;5113000;28;2032;-41
2023/04/27 12:59:42;;;;;;;;;;;;;;;;;;5112758;28;2082;-48
2023/04/27 13:02:10;;;;;;;;;;;;;;;;;;5112939;28;2042;-45
2023/04/27 13:04:38;;;;;;;;;;;;;;;;;;5113067;28;2092;-40
2023/04/27 13:07:06;;;;;;;;;;;;;;;;;;5112649;28;2143;-39
2023/04/27 13:09:35;;;;;;;;;;;;;;;;;;5112738;28;1919;-42
2023/04/27 13:12:02;;;;;;;;;;;;;;;;;;5112532;28;1800;-41
2023/04/27 13:14:30;;;;;;;;;;;;;;;;;;5112376;28;1926;-43
2023/04/27 13:16:58;;;;;;;;;;;;;;;;;;5112663;28;1945;-40
2023/04/27 13:19:25;;;;;;;;;;;;;;;;;;5112152;28;2105;-60
2023/04/27 13:21:52;;;;;;;;;;;;;;;;;;5112413;28;2005;-40
2023/04/27 13:24:20;;;;;;;;;;;;;;;;;;5112322;28;1993;-41
2023/04/27 13:26:48;;;;;;;;;;;;;;;;;;5108734;28;2109;-50
2023/04/27 13:29:17;;;;;;;;;;;;;;;;;;5111815;28;1723;-41
2023/04/27 13:31:48;;;;;;;;;;;;;;;;;;5111878;28;2008;-40
2023/04/27 13:34:24;;;;;;;;;;;;;;;;;;5111417;28;1966;-40
2023/04/27 13:36:58;;;;;;;;;;;;;;;;;;5111976;28;2032;-54
2023/04/27 13:39:26;;;;;;;;;;;;;;;;;;5111707;28;2093;-41
2023/04/27 13:41:54;;;;;;;;;;;;;;;;;;5111778;28;1926;-41
2023/04/27 13:44:27;;;;;;;;;;;;;;;;;;5112025;28;2097;-41
2023/04/27 13:46:54;;;;;;;;;;;;;;;;;;5111773;28;1979;-64
2023/04/27 13:49:22;;;;;;;;;;;;;;;;;;5111799;28;2173;-40
2023/04/27 13:51:51;;;;;;;;;;;;;;;;;;5111656;28;1932;-42
2023/04/27 13:54:20;;;;;;;;;;;;;;;;;;5111609;28;2154;-59
2023/04/27 13:56:50;;;;;;;;;;;;;;;;;;5111467;28;2002;-40
2023/04/27 13:59:20;;;;;;;;;;;;;;;;;;5111605;28;1979;-40
2023/04/27 14:01:49;;;;;;;;;;;;;;;;;;5111701;28;2086;-42
2023/04/27 14:04:18;;;;;;;;;;;;;;;;;;5111419;28;1808;-42
2023/04/27 14:06:51;;;;;;;;;;;;;;;;;;5093021;28;2142;-40
2023/04/27 14:09:19;;;;;;;;;;;;;;;;;;5111494;28;1937;-40
2023/04/27 14:11:48;;;;;;;;;;;;;;;;;;5111326;28;2099;-40
2023/04/27 14:14:24;;;;;;;;;;;;;;;;;;5111497;28;1925;-40
2023/04/27 14:16:52;;;;;;;;;;;;;;;;;;5111307;28;2108;-38
2023/04/27 14:19:26;;;;;;;;;;;;;;;;;;5111446;28;2125;-45
2023/04/27 14:21:56;;;;;;;;;;;;;;;;;;5111331;28;2027;-44
2023/04/27 14:24:23;;;;;;;;;;;;;;;;;;5113570;28;2168;-40
2023/04/27 14:26:51;;;;;;;;;;;;;;;;;;5115190;28;2015;-41
2023/04/27 14:29:18;;;;;;;;;;;;;;;;;;5115829;28;1919;-40
2023/04/27 14:31:46;;;;;;;;;;;;;;;;;;5115501;28;1861;-40
2023/04/27 14:34:16;;;;;;;;;;;;;;;;;;5115610;28;2054;-41
2023/04/27 14:36:45;;;;;;;;;;;;;;;;;;5115451;28;1862;-40
2023/04/27 14:39:12;;;;;;;;;;;;;;;;;;5115080;28;1982;-42
2023/04/27 14:41:39;;;;;;;;;;;;;;;;;;5115073;28;2014;-49
2023/04/27 14:44:07;;;;;;;;;;;;;;;;;;5115273;28;2022;-43
2023/04/27 14:46:36;;;;;;;;;;;;;;;;;;5115003;28;2074;-42
2023/04/27 14:49:03;;;;;;;;;;;;;;;;;;5115294;28;1912;-46
2023/04/27 14:51:31;;;;;;;;;;;;;;;;;;5115066;28;2094;-50
2023/04/27 14:53:58;;;;;;;;;;;;;;;;;;5114866;27;2110;-47
2023/04/27 14:56:27;;;;;;;;;;;;;;;;;;5114901;28;1888;-44
2023/04/27 14:58:54;;;;;;;;;;;;;;;;;;5114850;28;2012;-45
2023/04/27 15:01:21;;;;;;;;;;;;;;;;;;5115237;28;2001;-48
2023/04/27 15:03:49;;;;;;;;;;;;;;;;;;5114823;28;1985;-45
2023/04/27 15:06:17;;;;;;;;;;;;;;;;;;5115072;28;2087;-40
2023/04/27 15:08:45;;;;;;;;;;;;;;;;;;5115055;28;1960;-44
2023/04/27 15:11:12;;;;;;;;;;;;;;;;;;5114981;28;1993;-44
2023/04/27 15:13:39;;;;;;;;;;;;;;;;;;5114950;28;2030;-49
2023/04/27 15:16:06;;;;;;;;;;;;;;;;;;5096583;28;2182;-45
2023/04/27 15:18:34;;;;;;;;;;;;;;;;;;5114811;28;1931;-40
2023/04/27 15:21:01;;;;;;;;;;;;;;;;;;5114572;28;1942;-47
2023/04/27 15:23:28;;;;;;;;;;;;;;;;;;5114382;28;2146;-42
2023/04/27 15:25:56;;;;;;;;;;;;;;;;;;5114663;28;2107;-44
2023/04/27 15:28:23;;;;;;;;;;;;;;;;;;5114531;28;2027;-43
2023/04/27 15:30:50;;;;;;;;;;;;;;;;;;5114652;28;1912;-40
2023/04/27 15:33:18;;;;;;;;;;;;;;;;;;5114808;28;1969;-48
2023/04/27 15:35:45;;;;;;;;;;;;;;;;;;5112711;28;2028;-40
2023/04/27 15:38:13;;;;;;;;;;;;;;;;;;5114428;28;2216;-50
2023/04/27 15:40:40;;;;;;;;;;;;;;;;;;5114321;28;1929;-57
2023/04/27 15:43:07;;;;;;;;;;;;;;;;;;5114291;28;2092;-40
2023/04/27 15:45:35;;;;;;;;;;;;;;;;;;5114432;28;1973;-40
2023/04/27 15:48:02;;;;;;;;;;;;;;;;;;5114167;28;2087;-44
2023/04/27 15:50:29;;;;;;;;;;;;;;;;;;5114250;28;1976;-54
2023/04/27 15:52:56;;;;;;;;;;;;;;;;;;5113500;28;2277;-46
2023/04/27 15:55:24;;;;;;;;;;;;;;;;;;5093760;28;2032;-45
2023/04/27 15:57:51;;;;;;;;;;;;;;;;;;5093751;28;1860;-42
2023/04/27 16:00:20;;;;;;;;;;;;;;;;;;5093577;28;2010;-48
2023/04/27 16:02:48;;;;;;;;;;;;;;;;;;5095728;28;2095;-49
2023/04/27 16:05:15;;;;;;;;;;;;;;;;;;5113836;28;2003;-50
2023/04/27 16:07:43;;;;;;;;;;;;;;;;;;5113786;28;1793;-43
2023/04/27 16:10:11;;;;;;;;;;;;;;;;;;5113749;28;1593;-39
2023/04/27 16:12:38;;;;;;;;;;;;;;;;;;5113739;28;2127;-39
2023/04/27 16:15:06;;;;;;;;;;;;;;;;;;5113291;28;2079;-51
2023/04/27 16:17:36;;;;;;;;;;;;;;;;;;5113315;28;1897;-49
2023/04/27 16:20:06;;;;;;;;;;;;;;;;;;5112952;28;2197;-40
2023/04/27 16:22:34;;;;;;;;;;;;;;;;;;5113499;28;1875;-40
2023/04/27 16:25:02;;;;;;;;;;;;;;;;;;5113666;28;1925;-40
2023/04/27 16:27:29;;;;;;;;;;;;;;;;;;5113307;28;2251;-41
2023/04/27 16:29:57;;;;;;;;;;;;;;;;;;5113349;28;1961;-40
2023/04/27 16:32:25;;;;;;;;;;;;;;;;;;5113534;28;2222;-40
2023/04/27 16:34:52;;;;;;;;;;;;;;;;;;5113467;28;2269;-39
2023/04/27 16:37:20;;;;;;;;;;;;;;;;;;5113336;28;2149;-40
2023/04/27 16:39:47;;;;;;;;;;;;;;;;;;5113291;28;1989;-48
2023/04/27 16:42:18;;;;;;;;;;;;;;;;;;5113410;28;2135;-39
2023/04/27 16:44:46;;;;;;;;;;;;;;;;;;5113098;28;2092;-38
2023/04/27 16:47:14;;;;;;;;;;;;;;;;;;5112468;28;2025;-38
2023/04/27 16:49:43;;;;;;;;;;;;;;;;;;5112351;28;1990;-38
2023/04/27 16:52:10;;;;;;;;;;;;;;;;;;5094777;28;1804;-39
2023/04/27 16:54:37;;;;;;;;;;;;;;;;;;5094743;28;1994;-39
2023/04/27 16:57:06;;;;;;;;;;;;;;;;;;5112749;28;1901;-40
2023/04/27 16:59:33;;;;;;;;;;;;;;;;;;5112663;28;1973;-49
2023/04/27 17:02:00;;;;;;;;;;;;;;;;;;5112932;28;1989;-40
2023/04/27 17:04:42;;;;;;;;;;;;;;;;;;5112605;28;2164;-50
2023/04/27 17:07:10;;;;;;;;;;;;;;;;;;5112676;28;1987;-51
2023/04/27 17:09:39;;;;;;;;;;;;;;;;;;5112006;28;1926;-41
2023/04/27 17:12:11;;;;;;;;;;;;;;;;;;5112821;28;2056;-42